M I D A S
Marine Information and Data Acquisition System
Tripno 736 of the Zeeleeuw from 2004-06-14 06:28:19 to 2004-06-14 15:44:48
Back to CruiseResearch ActivitiesStationsMapUnderway DataData graphs

EquipmentUnitsComment
TimeDGPSUTC
LatitudeDGPSDM.mWGS84
LongitudeDGPSDM.mWGS84
HeadingGyrodeg 
SOGDGPSknotsSpeed over ground
COGDGPSdegCourse over ground
DepthEcho soundermeters200 kHz
Missing or incorrect values are displayed as -999
Navigation data collected by the RV Zeeleeuw from 2004-06-14 06:28:19 to 2004-06-14 15:44:48
                                                                                    Next 1000 lines
Time Latitude Longitude Heading SOG COG Depth
2004-06-14 06:28:29 51°13.595 2°56.098 126.1   98 6.5
2004-06-14 06:28:34 51°13.595 2°56.098 125.7 0.1 147 6.5
2004-06-14 06:28:39 51°13.595 2°56.098 124.7 0.1 179 6.5
2004-06-14 06:28:43 51°13.595 2°56.098 123.1 0.1 186 6.5
2004-06-14 06:28:49 51°13.595 2°56.098 121.9 0.1 200 6.5
2004-06-14 06:28:54 51°13.595 2°56.098 120.5 0.1 193 6.5
2004-06-14 06:28:59 51°13.594 2°56.098 119 0.1 189 6.5
2004-06-14 06:29:05 51°13.595 2°56.098 117.6 0.1 221 6.5
2004-06-14 06:29:09 51°13.595 2°56.097 116.5 0.4 285 6.5
2004-06-14 06:29:13 51°13.595 2°56.096 116 0.8 292 6.6
2004-06-14 06:29:19 51°13.596 2°56.093 116 1.1 290 6.7
2004-06-14 06:29:23 51°13.597 2°56.091 116.2 1.5 295 6.9
2004-06-14 06:29:29 51°13.598 2°56.086 116.8 2 296 7.1
2004-06-14 06:29:34 51°13.6 2°56.082 117.3 2.2 297 -999
2004-06-14 06:29:39 51°13.601 2°56.077 117.5 2.4 296 -999
2004-06-14 06:29:45 51°13.603 2°56.07 117.5 2.7 297 -999
2004-06-14 06:29:50 51°13.605 2°56.064 117.5 2.9 295 -999
2004-06-14 06:29:55 51°13.607 2°56.058 117.2 3.1 296 -999
2004-06-14 06:29:59 51°13.608 2°56.053 117 3.2 294 -999
2004-06-14 06:30:05 51°13.611 2°56.045 116.9 3.2 294 -999
2004-06-14 06:30:10 51°13.613 2°56.038 116.8 3.4 294 -999
2004-06-14 06:30:15 51°13.615 2°56.031 116.7 3.5 294 -999
2004-06-14 06:30:20 51°13.617 2°56.024 116.7 3.6 293 -999
2004-06-14 06:30:25 51°13.619 2°56.016 116.6 3.6 293 -999
2004-06-14 06:30:30 51°13.621 2°56.009 116.4 3.7 293 -999
2004-06-14 06:30:35 51°13.623 2°56.001 116.3 3.8 292 -999
2004-06-14 06:30:39 51°13.625 2°55.995 116.3 3.8 292 -999
2004-06-14 06:30:45 51°13.627 2°55.985 116.8 3.9 293 -999
2004-06-14 06:30:50 51°13.629 2°55.977 117.5 4 293 -999
2004-06-14 06:30:55 51°13.632 2°55.968 118.2 4.1 294 -999
2004-06-14 06:30:59 51°13.634 2°55.962 118.6 4.2 295 -999
2004-06-14 06:31:05 51°13.637 2°55.951 119 4.3 294 -999
2004-06-14 06:31:10 51°13.639 2°55.943 119.3 4.3 296 -999
2004-06-14 06:31:15 51°13.642 2°55.934 119.4 4.4 296 -999
2004-06-14 06:31:19 51°13.644 2°55.927 119.4 4.4 296 -999
2004-06-14 06:31:25 51°13.647 2°55.916 119.1 4.5 296 -999
2004-06-14 06:31:30 51°13.65 2°55.907 118.4 4.6 295 -999
2004-06-14 06:31:35 51°13.653 2°55.898 117.2 4.7 295 -999
2004-06-14 06:31:39 51°13.655 2°55.89 116.4 4.7 294 -999
2004-06-14 06:31:45 51°13.658 2°55.878 115.1 4.8 293 -999
2004-06-14 06:31:50 51°13.66 2°55.869 113.9 4.8 292 -999
2004-06-14 06:31:55 51°13.663 2°55.859 112.4 4.8 290 -999
2004-06-14 06:31:59 51°13.665 2°55.851 111 4.9 289 -999
2004-06-14 06:32:05 51°13.667 2°55.838 109.5 4.9 288 -999
2004-06-14 06:32:10 51°13.669 2°55.828 108.2 4.9 286 -999
2004-06-14 06:32:15 51°13.671 2°55.818 106.9 4.7 286 -999
2004-06-14 06:32:19 51°13.672 2°55.81 106 4.5 284 -999
2004-06-14 06:32:25 51°13.673 2°55.8 105.3 4.2 283 -999
2004-06-14 06:32:30 51°13.674 2°55.793 104 3.3 282 -999
2004-06-14 06:32:34 51°13.675 2°55.788 102.3 2.8 282 5
2004-06-14 06:32:39 51°13.676 2°55.784 99.8 2.1 285 10.5
2004-06-14 06:32:44 51°13.676 2°55.782 97.4 1.5 282 10.7
2004-06-14 06:32:49 51°13.677 2°55.781 93.7 0.4 328 10.9
2004-06-14 06:32:54 51°13.677 2°55.782 88 0.5 37 11.1
2004-06-14 06:32:59 51°13.678 2°55.783 79.8 0.9 48 11.3
2004-06-14 06:33:04 51°13.679 2°55.786 73.7 1.3 55 11.3
2004-06-14 06:33:09 51°13.681 2°55.788 64.4 1.3 42 11.4
2004-06-14 06:33:14 51°13.682 2°55.79 60.2 0.9 45 11.3
2004-06-14 06:33:18 51°13.682 2°55.79 55.7 0.5 36 11.5
2004-06-14 06:33:24 51°13.682 2°55.79 52.7 0.2 339 11.5
2004-06-14 06:33:29 51°13.682 2°55.788 49.3 0.6 240 11.5
2004-06-14 06:33:34 51°13.681 2°55.787 46.6 0.9 228 11.5
2004-06-14 06:33:37 51°13.68 2°55.786 44.5 1.2 227 11.5
2004-06-14 06:33:45 51°13.677 2°55.782 42.5 1.5 223 11.7
2004-06-14 06:33:50 51°13.675 2°55.779 40.3 2.1 220 -999
2004-06-14 06:33:55 51°13.672 2°55.776 38.6 2.3 217 -999
2004-06-14 06:33:59 51°13.671 2°55.773 36.8 2.2 217 -999
2004-06-14 06:34:05 51°13.668 2°55.771 35.9 2 217 -999
2004-06-14 06:34:10 51°13.668 2°55.77 34.1 0.5 224 -999
2004-06-14 06:34:14 51°13.669 2°55.77 29.8 0.4 356 9.7
2004-06-14 06:34:19 51°13.671 2°55.77 23 1.2 5 -999
2004-06-14 06:34:25 51°13.674 2°55.77 14.7 1.9 4 -999
2004-06-14 06:34:30 51°13.678 2°55.77 5.5 2.6 352 -999
2004-06-14 06:34:33 51°13.681 2°55.769 357.5 2.9 348 -999
2004-06-14 06:34:39 51°13.686 2°55.767 350.8 3.3 342 4.9
2004-06-14 06:34:43 51°13.69 2°55.764 344.6 3.7 337 13.4
2004-06-14 06:34:49 51°13.696 2°55.759 340.3 4.1 333 13.9
2004-06-14 06:34:54 51°13.701 2°55.754 335.8 4.4 329 13.2
2004-06-14 06:34:57 51°13.704 2°55.751 333.3 4.6 328 13
2004-06-14 06:35:07 51°13.716 2°55.738 330.6 5.3 325 11.1
2004-06-14 06:35:11 51°13.722 2°55.732 329.8 5.6 325 10.3
2004-06-14 06:35:17 51°13.73 2°55.723 329.6 6.2 324 9.9
2004-06-14 06:35:22 51°13.737 2°55.714 329.4 6.5 325 10.1
2004-06-14 06:35:27 51°13.745 2°55.705 328.8 6.8 323 9.8
2004-06-14 06:35:32 51°13.753 2°55.696 328.7 7.2 324 9.5
2004-06-14 06:35:37 51°13.762 2°55.686 328.8 7.5 324 9.4
2004-06-14 06:35:42 51°13.77 2°55.676 329.2 7.7 325 9.4
2004-06-14 06:35:47 51°13.78 2°55.666 330.6 7.8 327 10
2004-06-14 06:35:52 51°13.789 2°55.657 332.7 8.1 330 10
2004-06-14 06:35:57 51°13.8 2°55.649 335.3 8.3 333 9.9
2004-06-14 06:36:02 51°13.81 2°55.641 338.2 8.4 335 9.9
2004-06-14 06:36:07 51°13.821 2°55.634 341.1 8.4 337 9.8
2004-06-14 06:36:12 51°13.832 2°55.627 342.7 8.5 338 9.5
2004-06-14 06:36:17 51°13.843 2°55.62 343.4 8.6 339 9.3
2004-06-14 06:36:22 51°13.854 2°55.613 344.6 8.7 339 9.4
2004-06-14 06:36:27 51°13.866 2°55.606 345.2 8.8 339 9.4
2004-06-14 06:36:31 51°13.875 2°55.601 344.7 8.9 339 9.3
2004-06-14 06:36:37 51°13.889 2°55.592 344.4 9.1 339 9.2
2004-06-14 06:36:41 51°13.899 2°55.587 344.8 9.3 340 9.5
2004-06-14 06:36:47 51°13.913 2°55.578 345 9.3 339 9.3
2004-06-14 06:36:52 51°13.925 2°55.571 344.9 9.3 339 10.2
2004-06-14 06:36:57 51°13.937 2°55.563 344.9 9.4 339 9.5
2004-06-14 06:37:01 51°13.947 2°55.557 345.1 9.5 339 10.6
2004-06-14 06:37:07 51°13.962 2°55.548 344.8 9.5 339 10.2
2004-06-14 06:37:11 51°13.971 2°55.542 344.5 9.6 339 10.7
2004-06-14 06:37:17 51°13.986 2°55.533 344.4 9.6 338 10.9
2004-06-14 06:37:22 51°13.999 2°55.525 344.3 9.7 338 11.6
2004-06-14 06:37:27 51°14.011 2°55.516 343.4 9.7 337 11
2004-06-14 06:37:32 51°14.023 2°55.508 342.6 9.7 337 10.9
2004-06-14 06:37:37 51°14.036 2°55.5 342.5 9.7 336 10.8
2004-06-14 06:37:42 51°14.048 2°55.491 342.5 9.7 336 11.2
2004-06-14 06:37:47 51°14.06 2°55.482 341.3 9.8 335 11.5
2004-06-14 06:37:52 51°14.072 2°55.472 339.7 9.9 334 11.1
2004-06-14 06:37:57 51°14.085 2°55.461 338.8 10 333 11
2004-06-14 06:38:02 51°14.097 2°55.452 338.5 10.1 333 11
2004-06-14 06:38:07 51°14.109 2°55.441 338.6 10.1 332 11.2
2004-06-14 06:38:11 51°14.12 2°55.432 337.9 10.2 331 10.9
2004-06-14 06:38:17 51°14.135 2°55.419 336.9 10.5 330 11.3
2004-06-14 06:38:22 51°14.147 2°55.407 335.7 10.7 329 11.3
2004-06-14 06:38:26 51°14.158 2°55.396 334.5 10.9 328 11.2
2004-06-14 06:38:32 51°14.173 2°55.381 334.6 11.1 329 11.3
2004-06-14 06:38:38 51°14.189 2°55.365 334.1 11.3 326 11.3
2004-06-14 06:38:42 51°14.199 2°55.353 332.4 11.4 325 11.4
2004-06-14 06:38:47 51°14.212 2°55.337 330.3 11.5 322 11.3
2004-06-14 06:38:50 51°14.219 2°55.327 328 11.6 321 11.1
2004-06-14 06:38:58 51°14.238 2°55.299 325 11.7 317 11.7
2004-06-14 06:39:02 51°14.247 2°55.284 322.3 11.8 314 11.2
2004-06-14 06:39:07 51°14.259 2°55.265 320 11.8 313 11.2
2004-06-14 06:39:12 51°14.27 2°55.245 318.9 12 311 11.1
2004-06-14 06:39:17 51°14.281 2°55.224 317.3 12.1 311 11.1
2004-06-14 06:39:22 51°14.291 2°55.204 316.4 12.2 310 10.8
2004-06-14 06:39:27 51°14.302 2°55.183 315.7 12.2 310 10.8
2004-06-14 06:39:32 51°14.313 2°55.162 315.7 12.2 310 11
2004-06-14 06:39:37 51°14.325 2°55.142 316.4 12.3 311 10.8
2004-06-14 06:39:42 51°14.336 2°55.121 316.5 12.4 310 10.7
2004-06-14 06:39:47 51°14.347 2°55.101 316.5 12.5 312 10.4
2004-06-14 06:39:51 51°14.356 2°55.084 316.7 12.6 311 10.2
2004-06-14 06:39:57 51°14.37 2°55.059 316.6 12.8 311 10.8
2004-06-14 06:40:01 51°14.38 2°55.041 317 12.9 312 10.7
2004-06-14 06:40:07 51°14.394 2°55.016 317.9 13.1 312 10.8
2004-06-14 06:40:11 51°14.404 2°54.998 317.8 13.3 311 10.5
2004-06-14 06:40:17 51°14.418 2°54.97 317.1 13.4 308 10.9
2004-06-14 06:40:22 51°14.429 2°54.946 315.2 13.5 306 10.8
2004-06-14 06:40:27 51°14.44 2°54.922 313.6 13.5 306 10.3
2004-06-14 06:40:32 51°14.451 2°54.898 313.5 13.6 306 10.2
2004-06-14 06:40:37 51°14.463 2°54.874 313.3 13.7 307 10.3
2004-06-14 06:40:42 51°14.474 2°54.849 313.7 13.7 306 10.1
2004-06-14 06:40:47 51°14.485 2°54.825 313.8 13.7 306 10.2
2004-06-14 06:40:52 51°14.496 2°54.8 313.5 13.8 305 10.2
2004-06-14 06:40:57 51°14.507 2°54.775 313.5 13.7 305 10.1
2004-06-14 06:41:02 51°14.518 2°54.75 313.6 13.7 305 10
2004-06-14 06:41:07 51°14.528 2°54.724 312 13.7 301 9.9
2004-06-14 06:41:12 51°14.536 2°54.696 307.3 13.8 296 10
2004-06-14 06:41:17 51°14.542 2°54.668 302.6 13.8 291 9.9
2004-06-14 06:41:22 51°14.547 2°54.638 297.1 13.7 285 9.9
2004-06-14 06:41:27 51°14.55 2°54.609 290.3 13.7 281 9.9
2004-06-14 06:41:30 51°14.551 2°54.591 285.7 13.7 276 10
2004-06-14 06:41:37 51°14.552 2°54.548 281.1 13.8 274 10.2
2004-06-14 06:41:42 51°14.552 2°54.517 277.8 13.9 269 10.3
2004-06-14 06:41:47 51°14.551 2°54.487 275.1 13.9 268 10.6
2004-06-14 06:41:50 51°14.55 2°54.468 273.4 13.9 266 10.8
2004-06-14 06:41:57 51°14.547 2°54.426 271.1 13.9 260 10.5
2004-06-14 06:42:02 51°14.542 2°54.396 266.3 13.9 256 10.7
2004-06-14 06:42:07 51°14.536 2°54.367 261.2 13.9 253 10.5
2004-06-14 06:42:10 51°14.532 2°54.35 256.3 13.9 250 10.7
2004-06-14 06:42:17 51°14.521 2°54.31 252.6 13.9 245 10.7
2004-06-14 06:42:22 51°14.512 2°54.283 250.4 13.9 245 10.8
2004-06-14 06:42:25 51°14.507 2°54.266 248.8 13.9 243 10.7
2004-06-14 06:42:31 51°14.497 2°54.233 247.4 14 243 10.7
2004-06-14 06:42:38 51°14.483 2°54.195 246.1 14.1 242 10
2004-06-14 06:42:42 51°14.476 2°54.173 245.5 14 241 9.7
2004-06-14 06:42:47 51°14.466 2°54.147 245.2 13.9 241 9.5
2004-06-14 06:42:51 51°14.458 2°54.126 244.5 13.9 240 9.5
2004-06-14 06:42:57 51°14.447 2°54.093 244.5 13.9 240 9.5
2004-06-14 06:43:02 51°14.438 2°54.067 244.7 13.9 240 9.5
2004-06-14 06:43:07 51°14.428 2°54.041 244.3 13.8 239 9.4
2004-06-14 06:43:12 51°14.418 2°54.014 243.2 14 239 9.4
2004-06-14 06:43:17 51°14.407 2°53.988 242.4 14 238 9.4
2004-06-14 06:43:22 51°14.397 2°53.962 242.2 14 237 9.4
2004-06-14 06:43:27 51°14.386 2°53.936 241.1 14 237 9.4
2004-06-14 06:43:31 51°14.377 2°53.915 241.3 14.1 238 9.5
2004-06-14 06:43:37 51°14.365 2°53.883 241.6 14.1 238 9.5
2004-06-14 06:43:42 51°14.355 2°53.857 241.8 14.1 238 9.5
2004-06-14 06:43:47 51°14.344 2°53.831 242.1 14.1 238 9.4
2004-06-14 06:43:53 51°14.332 2°53.798 242.1 14.2 238 9.4
2004-06-14 06:43:57 51°14.324 2°53.777 242.6 14.2 240 9.5
2004-06-14 06:44:01 51°14.315 2°53.756 243.1 14.2 238 9.4
2004-06-14 06:44:07 51°14.303 2°53.723 243 14.1 239 9.5
2004-06-14 06:44:12 51°14.292 2°53.698 242.4 14.2 236 9.5
2004-06-14 06:44:17 51°14.282 2°53.67 242.1 14.2 238 9.4
2004-06-14 06:44:22 51°14.271 2°53.644 242.4 14.3 237 9.4
2004-06-14 06:44:27 51°14.261 2°53.617 242 14.3 238 9.5
2004-06-14 06:44:31 51°14.253 2°53.596 242.4 14.2 238 9.5
2004-06-14 06:44:37 51°14.24 2°53.564 242.4 14.4 238 9.5
2004-06-14 06:44:42 51°14.23 2°53.536 243.1 14.3 240 9.5
2004-06-14 06:44:47 51°14.22 2°53.51 243.7 14.3 239 9.5
2004-06-14 06:44:53 51°14.208 2°53.477 243.3 14.3 241 9.6
2004-06-14 06:44:57 51°14.199 2°53.455 243.9 14.3 239 9.6
2004-06-14 06:45:01 51°14.192 2°53.433 244 14.3 240 9.6
2004-06-14 06:45:07 51°14.179 2°53.401 243.5 14.3 238 9.6
2004-06-14 06:45:12 51°14.169 2°53.374 243.3 14.4 239 9.7
2004-06-14 06:45:17 51°14.158 2°53.347 243.3 14.4 237 9.6
2004-06-14 06:45:22 51°14.148 2°53.32 242.1 14.4 238 9.7
2004-06-14 06:45:27 51°14.137 2°53.293 242.9 14.3 238 9.7
2004-06-14 06:45:31 51°14.128 2°53.272 241.9 14.4 239 9.8
2004-06-14 06:45:37 51°14.116 2°53.239 242.6 14.4 236 9.8
2004-06-14 06:45:42 51°14.105 2°53.212 242.1 14.4 239 9.8
2004-06-14 06:45:47 51°14.094 2°53.186 242.1 14.4 237 9.8
2004-06-14 06:45:51 51°14.086 2°53.164 242.4 14.4 238 9.8
2004-06-14 06:45:57 51°14.073 2°53.132 242.6 14.4 238 9.9
2004-06-14 06:46:02 51°14.062 2°53.105 243 14.5 238 9.9
2004-06-14 06:46:04 51°14.058 2°53.094 242.8 14.5 240 10
2004-06-14 06:46:12 51°14.042 2°53.05 243.5 14.4 238 10
2004-06-14 06:46:17 51°14.031 2°53.023 242.9 14.4 239 10
2004-06-14 06:46:22 51°14.02 2°52.996 243.3 14.4 237 10.1
2004-06-14 06:46:27 51°14.01 2°52.969 242.7 14.5 238 10
2004-06-14 06:46:32 51°13.999 2°52.942 242.5 14.5 237 10.2
2004-06-14 06:46:37 51°13.988 2°52.915 242.9 14.4 237 10.2
2004-06-14 06:46:42 51°13.978 2°52.887 242.4 14.6 238 10.2
2004-06-14 06:46:47 51°13.967 2°52.86 243 14.4 239 10.3
2004-06-14 06:46:51 51°13.959 2°52.839 243.2 14.4 238 10.2
2004-06-14 06:46:57 51°13.946 2°52.806 242.7 14.6 238 10.2
2004-06-14 06:47:02 51°13.936 2°52.779 243.4 14.4 238 10.2
2004-06-14 06:47:07 51°13.925 2°52.752 242.7 14.5 238 10.3
2004-06-14 06:47:12 51°13.914 2°52.724 243.1 14.5 239 10.3
2004-06-14 06:47:17 51°13.904 2°52.697 244 14.3 238 10.2
2004-06-14 06:47:22 51°13.893 2°52.67 243.1 14.5 237 10.3
2004-06-14 06:47:27 51°13.883 2°52.642 243.7 14.5 240 10.3
2004-06-14 06:47:32 51°13.872 2°52.616 243.3 14.5 237 10.3
2004-06-14 06:47:37 51°13.862 2°52.588 243.6 14.4 240 10.4
2004-06-14 06:47:42 51°13.851 2°52.561 243.3 14.4 238 10.4
2004-06-14 06:47:47 51°13.84 2°52.534 242.8 14.5 238 10.3
2004-06-14 06:47:50 51°13.834 2°52.518 242.9 14.5 238 10.3
2004-06-14 06:47:57 51°13.819 2°52.48 242.8 14.5 236 10.4
2004-06-14 06:48:02 51°13.809 2°52.453 242.1 14.6 239 10.4
2004-06-14 06:48:07 51°13.798 2°52.426 243.4 14.5 238 10.4
2004-06-14 06:48:12 51°13.788 2°52.398 243 14.4 238 10.4
2004-06-14 06:48:17 51°13.776 2°52.372 243 14.5 237 10.4
2004-06-14 06:48:22 51°13.767 2°52.344 243.3 14.4 240 10.4
2004-06-14 06:48:27 51°13.755 2°52.317 243.6 14.5 237 10.4
2004-06-14 06:48:32 51°13.745 2°52.29 242.8 14.6 238 10.5
2004-06-14 06:48:37 51°13.735 2°52.262 244 14.4 238 10.5
2004-06-14 06:48:42 51°13.724 2°52.235 243.1 14.6 238 10.4
2004-06-14 06:48:47 51°13.714 2°52.207 243.7 14.5 240 10.5
2004-06-14 06:48:51 51°13.705 2°52.186 243.3 14.4 237 10.5
2004-06-14 06:48:57 51°13.693 2°52.153 242.6 14.5 239 10.5
2004-06-14 06:49:02 51°13.682 2°52.126 243.5 14.5 237 10.5
2004-06-14 06:49:06 51°13.673 2°52.104 242.6 14.6 239 10.5
2004-06-14 06:49:11 51°13.663 2°52.076 243.7 14.6 239 10.6
2004-06-14 06:49:17 51°13.651 2°52.043 244.1 14.4 239 10.5
2004-06-14 06:49:21 51°13.642 2°52.022 243.7 14.5 238 10.6
2004-06-14 06:49:27 51°13.629 2°51.989 243.1 14.6 239 10.6
2004-06-14 06:49:29 51°13.625 2°51.978 243.3 14.5 239 10.6
2004-06-14 06:49:37 51°13.608 2°51.934 243.3 14.6 238 10.6
2004-06-14 06:49:41 51°13.6 2°51.912 243.2 14.7 239 10.5
2004-06-14 06:49:47 51°13.587 2°51.879 243.8 14.6 239 10.6
2004-06-14 06:49:52 51°13.577 2°51.851 244.1 14.4 240 10.5
2004-06-14 06:49:57 51°13.566 2°51.824 243.3 14.6 238 10.4
2004-06-14 06:50:02 51°13.556 2°51.797 242.9 14.6 238 10.5
2004-06-14 06:50:07 51°13.545 2°51.77 243.3 14.4 239 10.5
2004-06-14 06:50:11 51°13.536 2°51.748 242.4 14.5 237 10.5
2004-06-14 06:50:17 51°13.524 2°51.715 243.1 14.6 239 10.6
2004-06-14 06:50:22 51°13.514 2°51.687 243.8 14.4 239 10.6
2004-06-14 06:50:27 51°13.503 2°51.66 243.3 14.5 238 10.5
2004-06-14 06:50:31 51°13.495 2°51.638 243.1 14.6 239 10.6
2004-06-14 06:50:37 51°13.482 2°51.606 243.5 14.5 238 10.7
2004-06-14 06:50:42 51°13.471 2°51.578 242.9 14.6 239 10.7
2004-06-14 06:50:47 51°13.461 2°51.55 243.5 14.6 239 10.7
2004-06-14 06:50:52 51°13.451 2°51.523 243.8 14.5 239 10.8
2004-06-14 06:50:57 51°13.44 2°51.495 243.3 14.6 238 10.8
2004-06-14 06:51:02 51°13.43 2°51.467 243.4 14.5 241 10.8
2004-06-14 06:51:07 51°13.419 2°51.44 243.9 14.5 237 10.8
2004-06-14 06:51:12 51°13.409 2°51.412 243 14.6 239 10.8
2004-06-14 06:51:18 51°13.396 2°51.38 243.5 14.6 238 10.8
2004-06-14 06:51:21 51°13.389 2°51.363 243.1 14.5 239 10.8
2004-06-14 06:51:27 51°13.376 2°51.33 243.1 14.6 237 10.8
2004-06-14 06:51:29 51°13.372 2°51.319 242.7 14.5 240 10.8
2004-06-14 06:51:37 51°13.355 2°51.276 243.1 14.6 237 10.8
2004-06-14 06:51:41 51°13.347 2°51.254 242.3 14.7 240 10.7
2004-06-14 06:51:47 51°13.334 2°51.221 243.7 14.5 238 10.8
2004-06-14 06:51:52 51°13.323 2°51.194 242.2 14.6 236 10.8
2004-06-14 06:51:57 51°13.313 2°51.166 243.7 14.5 238 10.8
2004-06-14 06:52:02 51°13.302 2°51.139 243.7 14.6 238 10.9
2004-06-14 06:52:07 51°13.292 2°51.111 243.2 14.6 239 10.9
2004-06-14 06:52:11 51°13.284 2°51.089 243.7 14.6 239 10.8
2004-06-14 06:52:17 51°13.271 2°51.056 242.9 14.6 239 10.9
2004-06-14 06:52:22 51°13.26 2°51.029 243.7 14.6 237 10.9
2004-06-14 06:52:27 51°13.25 2°51.001 243.1 14.6 239 10.9
2004-06-14 06:52:31 51°13.241 2°50.979 243.7 14.5 239 10.9
2004-06-14 06:52:37 51°13.229 2°50.946 242.8 14.6 241 11
2004-06-14 06:52:42 51°13.217 2°50.92 243.1 14.6 236 10.9
2004-06-14 06:52:47 51°13.208 2°50.891 242.5 14.6 240 10.9
2004-06-14 06:52:51 51°13.199 2°50.87 243.4 14.6 238 10.9
2004-06-14 06:52:57 51°13.186 2°50.837 242.8 14.6 239 10.9
2004-06-14 06:53:02 51°13.176 2°50.81 243.3 14.5 239 11
2004-06-14 06:53:07 51°13.165 2°50.782 243.3 14.6 238 11
2004-06-14 06:53:12 51°13.155 2°50.754 243.3 14.5 240 11
2004-06-14 06:53:17 51°13.144 2°50.727 243.4 14.6 238 11
2004-06-14 06:53:22 51°13.134 2°50.699 243 14.6 240 11
2004-06-14 06:53:26 51°13.125 2°50.678 243.7 14.5 238 11.1
2004-06-14 06:53:32 51°13.113 2°50.645 243.2 14.6 239 11
2004-06-14 06:53:37 51°13.102 2°50.617 243.1 14.6 240 11.1
2004-06-14 06:53:41 51°13.094 2°50.595 243.8 14.4 239 11.1
2004-06-14 06:53:47 51°13.081 2°50.562 243.4 14.5 238 11.1
2004-06-14 06:53:51 51°13.073 2°50.54 243 14.6 239 11.1
2004-06-14 06:53:57 51°13.061 2°50.508 243.7 14.4 238 11
2004-06-14 06:54:02 51°13.05 2°50.48 243.1 14.5 239 11.1
2004-06-14 06:54:07 51°13.04 2°50.453 243.3 14.5 239 11.1
2004-06-14 06:54:12 51°13.03 2°50.425 243.7 14.5 239 11.1
2004-06-14 06:54:17 51°13.019 2°50.398 243.4 14.5 239 11.1
2004-06-14 06:54:22 51°13.009 2°50.37 243.5 14.4 239 11.1
2004-06-14 06:54:27 51°12.998 2°50.344 242.4 14.5 236 11.1
2004-06-14 06:54:31 51°12.989 2°50.322 242.1 14.5 238 11.2
2004-06-14 06:54:37 51°12.976 2°50.29 241.7 14.4 236 11.1
2004-06-14 06:54:42 51°12.965 2°50.263 240.7 14.5 236 11.1
2004-06-14 06:54:47 51°12.954 2°50.237 241 14.5 237 11.1
2004-06-14 06:54:52 51°12.943 2°50.21 241 14.5 237 11.2
2004-06-14 06:54:57 51°12.932 2°50.183 241.1 14.4 236 11.1
2004-06-14 06:55:02 51°12.921 2°50.157 240.9 14.5 236 11.2
2004-06-14 06:55:07 51°12.91 2°50.13 241.3 14.4 238 11.2
2004-06-14 06:55:11 51°12.9 2°50.109 240.9 14.4 235 11.2
2004-06-14 06:55:18 51°12.885 2°50.071 240.9 14.5 236 11.1
2004-06-14 06:55:22 51°12.876 2°50.05 241 14.5 236 11.2
2004-06-14 06:55:27 51°12.866 2°50.023 241.3 14.4 238 11.2
2004-06-14 06:55:31 51°12.856 2°50.002 240.9 14.5 235 11.1
2004-06-14 06:55:37 51°12.844 2°49.97 241.1 14.4 236 11.1
2004-06-14 06:55:42 51°12.832 2°49.943 240.8 14.5 236 11.1
2004-06-14 06:55:47 51°12.821 2°49.916 240.8 14.5 237 11.2
2004-06-14 06:55:51 51°12.813 2°49.895 241.3 14.4 236 11.2
2004-06-14 06:55:57 51°12.799 2°49.863 240.4 14.6 237 11.1
2004-06-14 06:56:02 51°12.788 2°49.836 241 14.5 237 11.1
2004-06-14 06:56:07 51°12.777 2°49.809 241.5 14.4 237 11.2
2004-06-14 06:56:12 51°12.766 2°49.782 241.1 14.5 237 11.2
2004-06-14 06:56:17 51°12.756 2°49.755 241.6 14.4 238 11.2
2004-06-14 06:56:22 51°12.744 2°49.729 241.9 14.5 236 11.1
2004-06-14 06:56:27 51°12.734 2°49.701 241.6 14.5 238 11.1
2004-06-14 06:56:31 51°12.725 2°49.68 241.9 14.5 236 11.2
2004-06-14 06:56:37 51°12.712 2°49.648 241.6 14.4 237 11.1
2004-06-14 06:56:42 51°12.701 2°49.622 241.6 14.5 236 11.2
2004-06-14 06:56:47 51°12.69 2°49.595 241.3 14.5 238 11.1
2004-06-14 06:56:52 51°12.679 2°49.568 241.6 14.5 236 11.1
2004-06-14 06:56:57 51°12.669 2°49.541 241.6 14.4 237 11.1
2004-06-14 06:57:02 51°12.658 2°49.514 241.9 14.4 237 11.2
2004-06-14 06:57:07 51°12.647 2°49.487 241.9 14.5 238 11.2
2004-06-14 06:57:12 51°12.636 2°49.46 242.4 14.5 238 11.2
2004-06-14 06:57:17 51°12.626 2°49.433 242.3 14.3 237 11.2
2004-06-14 06:57:22 51°12.615 2°49.407 242.2 14.5 237 11.2
2004-06-14 06:57:27 51°12.604 2°49.38 241 14.5 237 11.1
2004-06-14 06:57:32 51°12.592 2°49.353 241.3 14.4 237 11.2
2004-06-14 06:57:37 51°12.581 2°49.327 240.4 14.5 237 11.2
2004-06-14 06:57:42 51°12.571 2°49.3 240.9 14.5 237 11.1
2004-06-14 06:57:52 51°12.549 2°49.247 241 14.3 237 11.1
2004-06-14 06:57:57 51°12.538 2°49.22 240.6 14.5 239 11.1
2004-06-14 06:58:02 51°12.527 2°49.193 241.6 14.4 237 11.1
2004-06-14 06:58:07 51°12.517 2°49.166 242.2 14.4 239 11.1
2004-06-14 06:58:12 51°12.507 2°49.139 243.5 14.4 240 11.1
2004-06-14 06:58:17 51°12.497 2°49.11 244.9 14.4 241 11.1
2004-06-14 06:58:22 51°12.488 2°49.082 245.8 14.4 243 11.1
2004-06-14 06:58:27 51°12.479 2°49.055 246.6 14.3 242 11.2
2004-06-14 06:58:32 51°12.469 2°49.026 246.7 14.4 242 11.2
2004-06-14 06:58:37 51°12.46 2°48.998 247 14.4 242 11.1
2004-06-14 06:58:42 51°12.451 2°48.97 247 14.3 242 11.1
2004-06-14 06:58:53 51°12.431 2°48.908 246.6 14.5 242 11.1
2004-06-14 06:58:58 51°12.421 2°48.88 247.5 14.3 242 11.1
2004-06-14 06:59:03 51°12.412 2°48.852 246.6 14.4 241 11.1
2004-06-14 06:59:08 51°12.403 2°48.824 246.7 14.3 242 11.2
2004-06-14 06:59:13 51°12.393 2°48.796 246.7 14.4 242 11.1
2004-06-14 06:59:18 51°12.384 2°48.768 246.2 14.4 242 11.1
2004-06-14 06:59:23 51°12.374 2°48.74 246.4 14.4 242 11.2
2004-06-14 06:59:27 51°12.367 2°48.718 246.6 14.3 241 11.3
2004-06-14 06:59:33 51°12.356 2°48.684 246.3 14.3 243 11.3
2004-06-14 06:59:38 51°12.346 2°48.657 246.3 14.4 240 11.2
2004-06-14 06:59:43 51°12.336 2°48.628 245.5 14.5 242 11.3
2004-06-14 06:59:48 51°12.327 2°48.601 246.7 14.4 243 11.3
2004-06-14 06:59:53 51°12.317 2°48.573 246.1 14.3 242 11.3
2004-06-14 06:59:58 51°12.308 2°48.545 246 14.4 241 11.3
2004-06-14 07:00:02 51°12.3 2°48.523 245.8 14.4 242 11.3
2004-06-14 07:00:07 51°12.291 2°48.495 246.1 14.4 242 11.3
2004-06-14 07:00:13 51°12.28 2°48.461 246.2 14.4 243 11.3
2004-06-14 07:00:18 51°12.27 2°48.433 246.4 14.4 242 11.4
2004-06-14 07:00:23 51°12.261 2°48.405 247.1 14.3 243 11.4
2004-06-14 07:00:28 51°12.251 2°48.377 246.7 14.4 240 11.3
2004-06-14 07:00:33 51°12.242 2°48.349 246.1 14.3 242 11.4
2004-06-14 07:00:38 51°12.232 2°48.322 246.2 14.4 240 11.3
2004-06-14 07:00:43 51°12.224 2°48.293 246.5 14.4 245 11.4
2004-06-14 07:00:48 51°12.213 2°48.266 246.6 14.3 239 11.4
2004-06-14 07:00:53 51°12.205 2°48.237 246.2 14.3 242 11.3
2004-06-14 07:00:58 51°12.195 2°48.21 246.8 14.3 242 11.4
2004-06-14 07:01:02 51°12.188 2°48.188 246.5 14.3 242 11.4
2004-06-14 07:01:07 51°12.178 2°48.16 246.2 14.3 241 11.3
2004-06-14 07:01:13 51°12.167 2°48.127 246 14.3 241 11.4
2004-06-14 07:01:18 51°12.158 2°48.099 246 14.3 242 11.4
2004-06-14 07:01:23 51°12.149 2°48.071 246.7 14.2 243 11.4
2004-06-14 07:01:27 51°12.141 2°48.049 246.2 14.4 242 11.5
2004-06-14 07:01:33 51°12.13 2°48.015 246.6 14.2 242 11.5
2004-06-14 07:01:38 51°12.12 2°47.987 246.9 14.3 242 11.4
2004-06-14 07:01:43 51°12.112 2°47.959 247.2 14.4 245 11.4
2004-06-14 07:01:48 51°12.104 2°47.931 249.3 14.2 245 11.4
2004-06-14 07:01:53 51°12.096 2°47.901 249.7 14.3 248 11.4
2004-06-14 07:01:58 51°12.089 2°47.872 251.8 14.3 247 11.5
2004-06-14 07:02:03 51°12.081 2°47.843 252.2 14.3 248 11.5
2004-06-14 07:02:08 51°12.074 2°47.814 253 14.3 249 11.5
2004-06-14 07:02:13 51°12.067 2°47.784 253.5 14.3 248 11.5
2004-06-14 07:02:18 51°12.06 2°47.755 253.3 14.3 249 11.6
2004-06-14 07:02:23 51°12.052 2°47.726 253.8 14.3 248 11.6
2004-06-14 07:02:28 51°12.045 2°47.696 253.4 14.3 249 11.6
2004-06-14 07:02:33 51°12.037 2°47.667 253 14.3 247 11.6
2004-06-14 07:02:38 51°12.03 2°47.638 252 14.3 248 11.6
2004-06-14 07:02:43 51°12.022 2°47.609 252.4 14.3 248 11.7
2004-06-14 07:02:49 51°12.013 2°47.574 252.5 14.2 248 11.6
2004-06-14 07:02:53 51°12.007 2°47.55 252.6 14.3 249 11.8
2004-06-14 07:02:58 51°12 2°47.521 252.9 14.3 248 11.7
2004-06-14 07:03:01 51°11.995 2°47.504 253 14.3 248 11.8
2004-06-14 07:03:07 51°11.987 2°47.469 253.1 14.2 249 11.9
2004-06-14 07:03:13 51°11.978 2°47.434 253.2 14.2 248 11.8
2004-06-14 07:03:18 51°11.97 2°47.404 252.7 14.3 248 11.9
2004-06-14 07:03:23 51°11.963 2°47.375 252.6 14.3 247 11.8
2004-06-14 07:03:27 51°11.957 2°47.352 252.2 14.2 247 11.9
2004-06-14 07:03:33 51°11.947 2°47.318 252 14.2 247 11.9
2004-06-14 07:03:38 51°11.94 2°47.288 252.2 14.2 248 11.9
2004-06-14 07:03:43 51°11.933 2°47.259 252.5 14.3 247 11.9
2004-06-14 07:03:49 51°11.924 2°47.224 252.7 14.3 249 11.9
2004-06-14 07:03:53 51°11.918 2°47.201 253.2 14.2 249 12
2004-06-14 07:03:58 51°11.91 2°47.172 253.3 14.3 248 11.9
2004-06-14 07:04:01 51°11.906 2°47.154 253 14.2 249 12.1
2004-06-14 07:04:07 51°11.897 2°47.119 253 14.2 247 11.9
2004-06-14 07:04:13 51°11.888 2°47.084 251.9 14.3 249 12
2004-06-14 07:04:17 51°11.882 2°47.061 253 14.2 247 11.9
2004-06-14 07:04:23 51°11.873 2°47.026 252.3 14.3 247 12
2004-06-14 07:04:28 51°11.866 2°46.997 252.5 14.2 249 12.1
2004-06-14 07:04:33 51°11.858 2°46.968 252.8 14.3 247 12
2004-06-14 07:04:38 51°11.851 2°46.938 252.5 14.3 249 12.1
2004-06-14 07:04:43 51°11.843 2°46.909 253.1 14.2 246 12.1
2004-06-14 07:04:48 51°11.836 2°46.88 252.5 14.3 249 12.2
2004-06-14 07:04:53 51°11.828 2°46.851 252.8 14.4 247 12.2
2004-06-14 07:04:58 51°11.821 2°46.821 252.5 14.3 250 12.2
2004-06-14 07:05:03 51°11.814 2°46.792 253.4 14.2 247 12.2
2004-06-14 07:05:09 51°11.805 2°46.757 252.6 14.2 249 12.2
2004-06-14 07:05:13 51°11.799 2°46.734 253 14.2 247 12.2
2004-06-14 07:05:18 51°11.791 2°46.705 252.1 14.3 248 12.2
2004-06-14 07:05:23 51°11.784 2°46.676 252.2 14.3 247 12.2
2004-06-14 07:05:28 51°11.776 2°46.647 252.6 14.2 247 12.3
2004-06-14 07:05:33 51°11.769 2°46.617 251.8 14.4 248 12.3
2004-06-14 07:05:38 51°11.761 2°46.588 252.5 14.2 248 12.3
2004-06-14 07:05:43 51°11.754 2°46.559 252.8 14.2 247 12.4
2004-06-14 07:05:46 51°11.749 2°46.541 252.5 14.4 249 12.4
2004-06-14 07:05:53 51°11.739 2°46.5 253 14.2 248 12.4
2004-06-14 07:05:58 51°11.732 2°46.471 252.8 14.3 248 12.4
2004-06-14 07:06:03 51°11.724 2°46.442 252.5 14.4 248 12.5
2004-06-14 07:06:07 51°11.718 2°46.419 252.8 14.3 248 12.4
2004-06-14 07:06:13 51°11.709 2°46.384 252.5 14.2 247 12.4
2004-06-14 07:06:17 51°11.703 2°46.361 252.1 14.4 247 12.4
2004-06-14 07:06:23 51°11.694 2°46.325 251.6 14.4 247 12.5
2004-06-14 07:06:28 51°11.687 2°46.296 252.5 14.3 249 12.5
2004-06-14 07:06:33 51°11.68 2°46.266 253.6 14.3 249 12.5
2004-06-14 07:06:38 51°11.674 2°46.236 255 14.3 252 12.4
2004-06-14 07:06:43 51°11.668 2°46.206 256.4 14.2 253 12.5
2004-06-14 07:06:47 51°11.663 2°46.183 256.7 14.3 252 12.5
2004-06-14 07:06:53 51°11.656 2°46.146 257.3 14.3 253 12.5
2004-06-14 07:06:58 51°11.65 2°46.116 257.7 14.3 253 12.5
2004-06-14 07:07:03 51°11.644 2°46.086 257.5 14.2 253 12.5
2004-06-14 07:07:07 51°11.639 2°46.062 257.6 14.2 252 12.5
2004-06-14 07:07:13 51°11.632 2°46.026 257.3 14.3 253 12.5
2004-06-14 07:07:17 51°11.628 2°46.002 257.7 14.3 252 12.5
2004-06-14 07:07:23 51°11.621 2°45.966 257.4 14.2 253 12.5
2004-06-14 07:07:28 51°11.615 2°45.936 257.2 14.2 252 12.5
2004-06-14 07:07:33 51°11.609 2°45.906 257.2 14.3 254 12.6
2004-06-14 07:07:37 51°11.604 2°45.882 258.1 14.2 252 12.5
2004-06-14 07:07:43 51°11.597 2°45.846 257.4 14.3 252 12.6
2004-06-14 07:07:48 51°11.591 2°45.816 257.9 14.2 254 12.6
2004-06-14 07:07:53 51°11.585 2°45.786 257.5 14.3 251 12.6
2004-06-14 07:07:58 51°11.579 2°45.755 257.9 14.3 252 12.6
2004-06-14 07:08:03 51°11.574 2°45.725 258 14.2 253 12.6
2004-06-14 07:08:07 51°11.569 2°45.701 257.7 14.2 252 12.6
2004-06-14 07:08:13 51°11.562 2°45.665 257.6 14.4 253 12.6
2004-06-14 07:08:17 51°11.557 2°45.641 258 14.3 252 12.6
2004-06-14 07:08:23 51°11.55 2°45.605 257.6 14.2 254 12.7
2004-06-14 07:08:29 51°11.543 2°45.569 257.9 14.4 252 12.6
2004-06-14 07:08:33 51°11.539 2°45.544 257.7 14.4 253 12.7
2004-06-14 07:08:38 51°11.533 2°45.514 258.2 14.3 253 12.7
2004-06-14 07:08:43 51°11.527 2°45.484 257.9 14.3 253 12.7
2004-06-14 07:08:46 51°11.523 2°45.465 258.3 14.3 253 12.7
2004-06-14 07:08:53 51°11.515 2°45.423 258.2 14.4 252 12.6
2004-06-14 07:08:58 51°11.51 2°45.393 257.7 14.4 254 12.7
2004-06-14 07:09:03 51°11.504 2°45.363 258.1 14.2 252 12.7
2004-06-14 07:09:07 51°11.499 2°45.339 257.7 14.3 253 12.7
2004-06-14 07:09:13 51°11.492 2°45.302 257.4 14.3 253 12.7
2004-06-14 07:09:18 51°11.486 2°45.272 257.7 14.3 253 12.7
2004-06-14 07:09:22 51°11.481 2°45.248 257.4 14.4 252 12.7
2004-06-14 07:09:29 51°11.473 2°45.206 257.5 14.3 252 12.7
2004-06-14 07:09:33 51°11.468 2°45.182 257.4 14.3 252 12.7
2004-06-14 07:09:38 51°11.462 2°45.152 256.9 14.3 253 12.7
2004-06-14 07:09:41 51°11.459 2°45.134 257.1 14.4 252 12.7
2004-06-14 07:09:47 51°11.452 2°45.098 257.1 14.3 254 12.7
2004-06-14 07:09:53 51°11.444 2°45.062 257.5 14.3 251 12.7
2004-06-14 07:09:57 51°11.44 2°45.038 256.9 14.3 254 12.7
2004-06-14 07:10:03 51°11.433 2°45.002 257.7 14.2 253 12.7
2004-06-14 07:10:08 51°11.426 2°44.971 256.8 14.4 252 12.7
2004-06-14 07:10:13 51°11.421 2°44.941 257.1 14.3 252 12.7
2004-06-14 07:10:18 51°11.415 2°44.911 257.6 14.2 252 12.8
2004-06-14 07:10:23 51°11.409 2°44.881 256.9 14.2 252 12.8
2004-06-14 07:10:28 51°11.403 2°44.851 257 14.4 253 12.7
2004-06-14 07:10:33 51°11.397 2°44.82 257.4 14.3 253 12.8
2004-06-14 07:10:37 51°11.392 2°44.797 257.6 14.2 252 12.8
2004-06-14 07:10:43 51°11.385 2°44.761 256.7 14.3 252 12.7
2004-06-14 07:10:47 51°11.381 2°44.736 257.3 14.4 254 12.7
2004-06-14 07:10:53 51°11.373 2°44.7 256.9 14.3 252 12.7
2004-06-14 07:10:58 51°11.367 2°44.67 257.3 14.2 253 12.8
2004-06-14 07:11:02 51°11.362 2°44.646 257 14.3 252 12.7
2004-06-14 07:11:07 51°11.357 2°44.616 257.1 14.4 253 12.8
2004-06-14 07:11:13 51°11.35 2°44.58 257.3 14.2 253 12.8
2004-06-14 07:11:18 51°11.344 2°44.55 256.9 14.3 252 12.8
2004-06-14 07:11:23 51°11.338 2°44.52 256.8 14.3 253 12.7
2004-06-14 07:11:28 51°11.332 2°44.49 257 14.2 253 12.7
2004-06-14 07:11:33 51°11.325 2°44.46 256.7 14.3 252 12.7
2004-06-14 07:11:37 51°11.321 2°44.436 256.5 14.3 253 12.8
2004-06-14 07:11:43 51°11.313 2°44.4 257 14.3 251 12.8
2004-06-14 07:11:49 51°11.307 2°44.364 256.7 14.2 253 12.8
2004-06-14 07:11:53 51°11.302 2°44.34 257.4 14.3 252 12.8
2004-06-14 07:11:58 51°11.296 2°44.31 257.2 14.3 254 12.7
2004-06-14 07:12:03 51°11.29 2°44.28 257.5 14.2 252 12.8
2004-06-14 07:12:07 51°11.286 2°44.256 257.1 14.2 253 12.8
2004-06-14 07:12:13 51°11.278 2°44.22 257 14.3 252 12.7
2004-06-14 07:12:18 51°11.273 2°44.189 257.1 14.3 254 12.8
2004-06-14 07:12:22 51°11.268 2°44.166 257.7 14.2 253 12.8
2004-06-14 07:12:29 51°11.26 2°44.124 256.9 14.2 252 12.7
2004-06-14 07:12:33 51°11.256 2°44.099 257 14.3 253 12.7
2004-06-14 07:12:38 51°11.25 2°44.069 257.6 14.3 253 12.7
2004-06-14 07:12:43 51°11.244 2°44.039 257.6 14.2 254 12.8
2004-06-14 07:12:49 51°11.237 2°44.003 257.5 14.2 252 12.8
2004-06-14 07:12:53 51°11.232 2°43.979 257.4 14.2 253 12.8
2004-06-14 07:12:58 51°11.226 2°43.949 257.2 14.2 252 12.8
2004-06-14 07:13:03 51°11.221 2°43.919 257.2 14.2 254 12.8
2004-06-14 07:13:08 51°11.215 2°43.889 257.5 14.2 252 12.8
2004-06-14 07:13:13 51°11.209 2°43.859 257.2 14.3 253 12.8
2004-06-14 07:13:18 51°11.204 2°43.829 257.4 14.2 253 12.8
2004-06-14 07:13:23 51°11.198 2°43.8 257.4 14.1 252 12.8
2004-06-14 07:13:29 51°11.191 2°43.764 257 14.2 253 12.8
2004-06-14 07:13:33 51°11.186 2°43.74 256.8 14.2 254 12.8
2004-06-14 07:13:37 51°11.181 2°43.716 257.5 14.2 252 12.8
2004-06-14 07:13:43 51°11.175 2°43.68 257 14.2 253 12.8
2004-06-14 07:13:48 51°11.168 2°43.65 257.1 14.1 252 12.8
2004-06-14 07:13:53 51°11.163 2°43.62 257 14.3 254 12.7
2004-06-14 07:13:56 51°11.159 2°43.602 257.2 14.3 252 12.8
2004-06-14 07:14:02 51°11.153 2°43.565 258 14.2 255 12.8
2004-06-14 07:14:08 51°11.146 2°43.53 258 14.1 253 12.7
2004-06-14 07:14:13 51°11.14 2°43.5 257.6 14.1 251 12.8
2004-06-14 07:14:18 51°11.134 2°43.47 256.9 14.2 253 12.8
2004-06-14 07:14:23 51°11.128 2°43.44 256.6 14.2 252 12.8
2004-06-14 07:14:28 51°11.123 2°43.41 257.1 14.3 254 12.8
2004-06-14 07:14:33 51°11.116 2°43.381 257.3 14.1 253 12.9
2004-06-14 07:14:38 51°11.111 2°43.351 257.8 14 254 12.8
2004-06-14 07:14:43 51°11.105 2°43.321 256.9 14.2 251 12.9
2004-06-14 07:14:47 51°11.101 2°43.297 257.3 14.2 255 12.9
2004-06-14 07:14:53 51°11.094 2°43.261 257.4 14.2 253 12.8
2004-06-14 07:14:57 51°11.089 2°43.237 257.3 14.1 254 12.9
2004-06-14 07:15:03 51°11.082 2°43.202 257.6 14 251 12.9
2004-06-14 07:15:09 51°11.075 2°43.166 256.6 14.1 253 12.8
2004-06-14 07:15:13 51°11.071 2°43.142 256.8 14.3 253 12.8
2004-06-14 07:15:18 51°11.065 2°43.112 257.1 14.1 253 12.9
2004-06-14 07:15:23 51°11.059 2°43.083 257.3 14 252 12.9
2004-06-14 07:15:29 51°11.052 2°43.047 257.2 14 253 12.9
2004-06-14 07:15:33 51°11.047 2°43.023 256.9 14.1 252 12.9
2004-06-14 07:15:38 51°11.042 2°42.993 256.6 14.3 253 12.9
2004-06-14 07:15:43 51°11.036 2°42.963 257.2 14.2 253 13
2004-06-14 07:15:48 51°11.03 2°42.934 257.5 14.1 253 13
2004-06-14 07:15:53 51°11.024 2°42.904 257.4 14 252 12.9
2004-06-14 07:15:58 51°11.019 2°42.874 256.5 14.3 253 12.9
2004-06-14 07:16:03 51°11.013 2°42.844 256.7 14.3 253 12.9
2004-06-14 07:16:07 51°11.008 2°42.82 257.6 14.1 253 13
2004-06-14 07:16:13 51°11.001 2°42.785 257.3 14 253 13
2004-06-14 07:16:18 51°10.996 2°42.755 257.2 14 253 13
2004-06-14 07:16:22 51°10.991 2°42.731 256.9 14.1 253 12.9
2004-06-14 07:16:29 51°10.983 2°42.689 256.8 14.3 253 13
2004-06-14 07:16:33 51°10.979 2°42.665 257.6 14 255 13
2004-06-14 07:16:38 51°10.973 2°42.636 258.1 13.9 252 13
2004-06-14 07:16:43 51°10.968 2°42.606 257.3 14 254 13
2004-06-14 07:16:49 51°10.961 2°42.57 257.2 14.1 253 12.9
2004-06-14 07:16:53 51°10.957 2°42.546 257.3 14.2 254 12.9
2004-06-14 07:16:58 51°10.951 2°42.516 257.9 14.1 254 13
2004-06-14 07:17:03 51°10.946 2°42.486 258.1 14 254 12.9
2004-06-14 07:17:08 51°10.94 2°42.457 257.7 14 254 13
2004-06-14 07:17:13 51°10.934 2°42.427 257.4 14.1 252 13
2004-06-14 07:17:18 51°10.929 2°42.397 257.6 14 255 12.9
2004-06-14 07:17:23 51°10.925 2°42.368 259.1 13.6 257 13
2004-06-14 07:17:29 51°10.922 2°42.334 261.2 13.2 258 13
2004-06-14 07:17:33 51°10.92 2°42.311 263.5 12.7 263 13.1
2004-06-14 07:17:38 51°10.92 2°42.284 268.1 12.4 270 13
2004-06-14 07:17:43 51°10.922 2°42.258 274.6 12 274 13.1
2004-06-14 07:17:48 51°10.925 2°42.233 281.6 11.6 280 13.1
2004-06-14 07:17:53 51°10.93 2°42.21 286.8 11.1 290 13.1
2004-06-14 07:17:58 51°10.937 2°42.189 295.9 10.7 297 13.1
2004-06-14 07:18:03 51°10.945 2°42.171 303.3 10.1 301 13
2004-06-14 07:18:07 51°10.951 2°42.158 310.1 9.6 306 13.2
2004-06-14 07:18:13 51°10.962 2°42.14 314.9 8.7 315 13.2
2004-06-14 07:18:18 51°10.97 2°42.128 321.5 8.4 317 13.2
2004-06-14 07:18:23 51°10.978 2°42.116 325.6 8.1 320 13.3
2004-06-14 07:18:28 51°10.987 2°42.107 329.3 7.5 325 13.2
2004-06-14 07:18:33 51°10.995 2°42.098 333 7.1 329 13.3
2004-06-14 07:18:38 51°11.004 2°42.091 336.4 6.9 331 13.3
2004-06-14 07:18:43 51°11.012 2°42.085 339.6 6.6 334 13.3
2004-06-14 07:18:49 51°11.021 2°42.078 342.1 6.3 334 13.2
2004-06-14 07:18:54 51°11.028 2°42.073 344.2 6.1 336 13.2
2004-06-14 07:18:59 51°11.036 2°42.069 346.1 5.6 340 13.1
2004-06-14 07:19:04 51°11.043 2°42.065 349.1 5.4 342 13.1
2004-06-14 07:19:08 51°11.048 2°42.062 351.7 5.2 344 13.1
2004-06-14 07:19:14 51°11.056 2°42.059 354.1 5 346 13.1
2004-06-14 07:19:18 51°11.061 2°42.058 356.2 4.8 349 13
2004-06-14 07:19:24 51°11.069 2°42.056 358.2 4.7 350 13.1
2004-06-14 07:19:29 51°11.075 2°42.054 359.8 4.5 351 13
2004-06-14 07:19:34 51°11.081 2°42.053 0.8 4.4 351 12.9
2004-06-14 07:19:39 51°11.087 2°42.052 1.6 4.1 353 12.9
2004-06-14 07:19:44 51°11.092 2°42.051 2.6 4 353 12.9
2004-06-14 07:19:48 51°11.096 2°42.05 3.7 3.4 354 12.9
2004-06-14 07:19:54 51°11.101 2°42.049 4.7 3 353 12.9
2004-06-14 07:19:59 51°11.104 2°42.048 4.8 2.4 352 12.9
2004-06-14 07:20:03 51°11.106 2°42.048 3.4 1.9 349 12.9
2004-06-14 07:20:05 51°11.106 2°42.047 1.1 1.3 344 12.9
2004-06-14 07:20:14 51°11.109 2°42.046 358.8 0.9 347 12.9
2004-06-14 07:20:19 51°11.11 2°42.045 356.8 0.8 333 12.9
2004-06-14 07:20:24 51°11.111 2°42.045 355.7 0.7 348 12.9
2004-06-14 07:20:29 51°11.112 2°42.044 354.8 0.8 333 12.9
2004-06-14 07:20:34 51°11.112 2°42.043 354 0.7 344 12.9
2004-06-14 07:20:39 51°11.113 2°42.042 352.9 0.8 335 12.9
2004-06-14 07:20:43 51°11.114 2°42.042 352.5 0.8 348 12.9
2004-06-14 07:20:49 51°11.115 2°42.041 352 0.8 335 12.9
2004-06-14 07:20:54 51°11.116 2°42.041 351.1 0.8 343 12.8
2004-06-14 07:20:59 51°11.117 2°42.04 350.5 0.8 335 12.9
2004-06-14 07:21:03 51°11.118 2°42.039 349.8 0.8 333 12.8
2004-06-14 07:21:16 51°11.121 2°42.037 346.9 0.8 340 12.8
2004-06-14 07:21:22 51°11.122 2°42.036 346.2 0.8 328 12.9
2004-06-14 07:21:27 51°11.122 2°42.035 345 0.8 327 12.8
2004-06-14 07:21:32 51°11.123 2°42.034 344 0.8 337 12.8
2004-06-14 07:21:36 51°11.124 2°42.033 343.1 0.8 328 12.8
2004-06-14 07:21:42 51°11.126 2°42.033 342.5 0.8 332 12.8
2004-06-14 07:21:47 51°11.127 2°42.032 341.9 0.8 334 12.9
2004-06-14 07:21:52 51°11.128 2°42.032 341.2 0.9 335 12.9
2004-06-14 07:21:56 51°11.129 2°42.031 340.4 0.8 335 12.8
2004-06-14 07:22:02 51°11.13 2°42.029 339.7 0.9 332 12.8
2004-06-14 07:22:05 51°11.13 2°42.029 339.3 0.9 338 12.8
2004-06-14 07:22:12 51°11.131 2°42.027 339 0.8 337 12.8
2004-06-14 07:22:16 51°11.132 2°42.027 338.6 0.8 336 12.8
2004-06-14 07:22:22 51°11.133 2°42.025 338.3 0.9 337 12.8
2004-06-14 07:22:27 51°11.134 2°42.024 338.2 0.8 331 12.8
2004-06-14 07:22:30 51°11.135 2°42.024 337.8 0.8 329 12.8
2004-06-14 07:22:36 51°11.136 2°42.023 337.3 0.9 335 12.8
2004-06-14 07:22:42 51°11.138 2°42.022 337.2 0.8 334 12.8
2004-06-14 07:22:47 51°11.138 2°42.021 336.9 0.8 335 12.8
2004-06-14 07:22:52 51°11.139 2°42.02 336.7 0.9 338 12.8
2004-06-14 07:22:56 51°11.14 2°42.02 336.6 0.8 336 12.9
2004-06-14 07:23:02 51°11.142 2°42.019 336.5 0.8 338 12.8
2004-06-14 07:23:07 51°11.142 2°42.018 336.4 0.8 329 12.8
2004-06-14 07:23:12 51°11.144 2°42.018 336.3 0.8 343 12.8
2004-06-14 07:23:16 51°11.144 2°42.017 336 0.8 334 12.8
2004-06-14 07:23:22 51°11.145 2°42.015 336 0.9 336 12.8
2004-06-14 07:23:27 51°11.146 2°42.014 336 0.9 343 12.8
2004-06-14 07:23:32 51°11.147 2°42.013 335.9 0.9 332 12.9
2004-06-14 07:23:37 51°11.148 2°42.012 336.1 0.9 325 12.9
2004-06-14 07:23:42 51°11.149 2°42.012 336 0.8 332 12.8
2004-06-14 07:23:47 51°11.15 2°42.011 335.6 0.9 343 12.8
2004-06-14 07:23:52 51°11.151 2°42.01 335.3 0.8 339 12.9
2004-06-14 07:23:57 51°11.152 2°42.009 335.1 0.8 337 12.9
2004-06-14 07:24:02 51°11.153 2°42.008 335 0.7 331 12.9
2004-06-14 07:24:05 51°11.153 2°42.008 334.7 0.8 334 12.8
2004-06-14 07:24:11 51°11.155 2°42.007 334.4 0.9 336 12.8
2004-06-14 07:24:16 51°11.156 2°42.006 334.3 0.8 334 12.8
2004-06-14 07:24:22 51°11.157 2°42.005 334.2 0.8 334 12.8
2004-06-14 07:24:27 51°11.157 2°42.004 333.8 0.8 332 12.8
2004-06-14 07:24:32 51°11.158 2°42.003 333.8 0.8 334 12.8
2004-06-14 07:24:36 51°11.159 2°42.002 333.7 0.9 340 12.8
2004-06-14 07:24:42 51°11.16 2°42.002 333.6 0.8 333 12.9
2004-06-14 07:24:47 51°11.161 2°42.001 333.6 0.8 330 12.8
2004-06-14 07:24:52 51°11.162 2°42 333.3 0.7 331 12.8
2004-06-14 07:24:56 51°11.163 2°41.999 333.3 0.8 334 12.8
2004-06-14 07:25:02 51°11.164 2°41.998 333.3 0.8 332 12.8
2004-06-14 07:25:07 51°11.165 2°41.997 333.1 0.8 334 12.8
2004-06-14 07:25:12 51°11.166 2°41.996 333 0.8 329 12.8
2004-06-14 07:25:17 51°11.167 2°41.996 333.1 0.8 332 12.7
2004-06-14 07:25:22 51°11.168 2°41.995 332.9 0.9 327 12.8
2004-06-14 07:25:27 51°11.169 2°41.994 332.7 0.9 331 12.8
2004-06-14 07:25:32 51°11.17 2°41.993 332.8 0.8 338 12.8
2004-06-14 07:25:37 51°11.171 2°41.992 332.7 0.8 327 12.8
2004-06-14 07:25:42 51°11.172 2°41.991 332.6 0.8 330 12.8
2004-06-14 07:25:45 51°11.172 2°41.991 332.5 0.8 335 12.8
2004-06-14 07:25:52 51°11.174 2°41.989 332.6 0.8 327 12.8
2004-06-14 07:25:56 51°11.174 2°41.989 332.4 0.7 330 12.8
2004-06-14 07:26:02 51°11.175 2°41.988 332.5 0.8 330 12.8
2004-06-14 07:26:07 51°11.176 2°41.987 332.4 0.8 333 12.8
2004-06-14 07:26:11 51°11.177 2°41.986 332.4 0.8 333 12.8
2004-06-14 07:26:15 51°11.178 2°41.986 332.4 0.8 335 12.8
2004-06-14 07:26:22 51°11.179 2°41.985 332.6 0.8 333 12.8
2004-06-14 07:26:27 51°11.18 2°41.984 332.6 0.8 337 12.9
2004-06-14 07:26:32 51°11.181 2°41.983 332.7 0.8 336 12.8
2004-06-14 07:26:36 51°11.182 2°41.983 332.7 0.8 334 12.9
2004-06-14 07:26:42 51°11.183 2°41.982 332.8 0.8 332 12.9
2004-06-14 07:26:47 51°11.184 2°41.981 332.8 0.8 333 12.8
2004-06-14 07:26:52 51°11.185 2°41.98 332.8 0.8 334 12.8
2004-06-14 07:26:56 51°11.186 2°41.98 332.8 0.8 335 12.9
2004-06-14 07:27:02 51°11.187 2°41.979 332.7 0.8 332 12.9
2004-06-14 07:27:06 51°11.188 2°41.978 332.7 0.8 334 12.8
2004-06-14 07:27:11 51°11.189 2°41.978 332.6 0.8 340 12.8
2004-06-14 07:27:15 51°11.19 2°41.977 332.6 0.8 342 12.8
2004-06-14 07:27:22 51°11.191 2°41.976 332.5 0.8 344 12.8
2004-06-14 07:27:27 51°11.192 2°41.975 332.4 0.8 341 12.8
2004-06-14 07:27:32 51°11.193 2°41.975 332.4 0.8 333 12.8
2004-06-14 07:27:36 51°11.194 2°41.974 332.3 0.8 339 12.9
2004-06-14 07:27:42 51°11.195 2°41.973 332.4 0.8 338 12.9
2004-06-14 07:27:47 51°11.196 2°41.973 332.3 0.8 335 12.9
2004-06-14 07:27:51 51°11.197 2°41.972 332.4 0.8 340 12.9
2004-06-14 07:27:57 51°11.199 2°41.971 332.3 0.8 336 13
2004-06-14 07:28:02 51°11.199 2°41.971 332.3 0.8 338 13
2004-06-14 07:28:07 51°11.201 2°41.97 332.5 0.8 339 12.9
2004-06-14 07:28:12 51°11.202 2°41.969 332.4 0.8 337 13
2004-06-14 07:28:16 51°11.202 2°41.969 332.5 0.8 337 12.9
2004-06-14 07:28:22 51°11.204 2°41.968 332.7 0.8 339 12.9
2004-06-14 07:28:25 51°11.204 2°41.967 332.6 0.8 337 12.9
2004-06-14 07:28:32 51°11.206 2°41.967 332.4 0.8 337 12.9
2004-06-14 07:28:36 51°11.206 2°41.966 332.4 0.8 338 12.9
2004-06-14 07:28:42 51°11.208 2°41.965 332.4 0.8 339 13
2004-06-14 07:28:47 51°11.209 2°41.964 332.3 0.8 337 13
2004-06-14 07:28:51 51°11.21 2°41.964 332.3 0.8 340 12.9
2004-06-14 07:28:56 51°11.211 2°41.963 332.3 0.8 340 12.9
2004-06-14 07:29:02 51°11.212 2°41.963 332.2 0.8 339 12.9
2004-06-14 07:29:06 51°11.213 2°41.962 332 0.8 337 12.9
2004-06-14 07:29:12 51°11.214 2°41.961 332.1 0.7 339 12.9
2004-06-14 07:29:16 51°11.214 2°41.961 332.2 0.8 342 12.9
2004-06-14 07:29:22 51°11.216 2°41.96 331.9 0.8 339 13
2004-06-14 07:29:27 51°11.217 2°41.959 332.1 0.8 337 13
2004-06-14 07:29:32 51°11.218 2°41.959 332.1 0.8 341 13
2004-06-14 07:29:37 51°11.219 2°41.958 332.1 0.8 341 13
2004-06-14 07:29:42 51°11.22 2°41.957 332.1 0.7 339 13
2004-06-14 07:29:47 51°11.221 2°41.957 332.2 0.7 341 13
2004-06-14 07:29:52 51°11.222 2°41.956 332.2 0.7 342 13
2004-06-14 07:29:57 51°11.223 2°41.955 332.2 0.7 336 13
2004-06-14 07:30:02 51°11.224 2°41.955 332.3 0.8 339 13
2004-06-14 07:30:07 51°11.225 2°41.955 332.3 0.8 345 13
2004-06-14 07:30:12 51°11.226 2°41.954 332.2 0.8 339 13
2004-06-14 07:30:16 51°11.226 2°41.954 332.2 0.8 345 13
2004-06-14 07:30:21 51°11.227 2°41.953 332.2 0.8 342 13.1
2004-06-14 07:30:26 51°11.228 2°41.952 332.3 0.8 336 13
2004-06-14 07:30:30 51°11.229 2°41.952 332.3 0.7 346 13
2004-06-14 07:30:36 51°11.23 2°41.951 332.3 0.8 336 13
2004-06-14 07:30:42 51°11.232 2°41.951 332.4 0.8 347 13
2004-06-14 07:30:47 51°11.232 2°41.95 332.6 0.8 345 13
2004-06-14 07:30:52 51°11.234 2°41.95 332.7 0.8 346 13
2004-06-14 07:30:57 51°11.235 2°41.949 332.8 0.8 347 13
2004-06-14 07:31:02 51°11.236 2°41.949 333.1 0.8 349 13
2004-06-14 07:31:07 51°11.237 2°41.949 333.3 0.8 346 13
2004-06-14 07:31:12 51°11.238 2°41.948 333.5 0.8 346 13
2004-06-14 07:31:17 51°11.239 2°41.948 333.7 0.8 347 13
2004-06-14 07:31:22 51°11.24 2°41.948 333.8 0.8 349 13
2004-06-14 07:31:25 51°11.24 2°41.947 334 0.9 354 13
2004-06-14 07:31:32 51°11.242 2°41.947 334.1 0.8 352 13
2004-06-14 07:31:36 51°11.243 2°41.946 334.4 0.8 348 13
2004-06-14 07:31:42 51°11.244 2°41.946 334.5 0.8 349 13
2004-06-14 07:31:47 51°11.245 2°41.946 334.7 0.8 347 13
2004-06-14 07:31:52 51°11.246 2°41.945 334.9 0.8 349 13
2004-06-14 07:31:57 51°11.247 2°41.945 335.1 0.8 354 13
2004-06-14 07:32:02 51°11.248 2°41.945 335.3 0.9 353 12.9
2004-06-14 07:32:07 51°11.249 2°41.945 335.4 0.8 356 13
2004-06-14 07:32:12 51°11.25 2°41.944 335.9 0.8 350 13
2004-06-14 07:32:16 51°11.251 2°41.944 336 0.7 358 13
2004-06-14 07:32:22 51°11.252 2°41.944 336.3 0.8 353 13
2004-06-14 07:32:27 51°11.253 2°41.944 336.7 0.8 353 13
2004-06-14 07:32:31 51°11.254 2°41.943 336.8 0.8 356 13
2004-06-14 07:32:37 51°11.256 2°41.943 337.3 0.8 356 13
2004-06-14 07:32:42 51°11.256 2°41.943 337.6 0.8 357 13
2004-06-14 07:32:47 51°11.258 2°41.943 337.9 0.9 359 13.1
2004-06-14 07:32:52 51°11.259 2°41.943 338.3 0.8 357 13
2004-06-14 07:32:56 51°11.26 2°41.943 338.3 0.8 359 13
2004-06-14 07:33:02 51°11.261 2°41.943 338.7 0.8 2 13
2004-06-14 07:33:07 51°11.262 2°41.943 338.9 0.7 356 13
2004-06-14 07:33:12 51°11.263 2°41.943 339 0.8 2 13
2004-06-14 07:33:17 51°11.264 2°41.943 339.2 0.8 357 13
2004-06-14 07:33:22 51°11.265 2°41.942 339.4 0.7 3 13
2004-06-14 07:33:27 51°11.267 2°41.943 339.6 0.8 5 13
2004-06-14 07:33:32 51°11.268 2°41.943 339.9 0.8   13
2004-06-14 07:33:36 51°11.268 2°41.943 340.1 0.8 2 13
2004-06-14 07:33:42 51°11.27 2°41.943 340.4 0.9 357 12.9
2004-06-14 07:33:47 51°11.273 2°41.942 340.4 1.8 344 12.9
2004-06-14 07:33:52 51°11.276 2°41.939 339.4 2.4 340 12.9
2004-06-14 07:33:56 51°11.28 2°41.937 336.4 3 336 12.9
2004-06-14 07:34:02 51°11.285 2°41.93 333 4.4 325 12.9
2004-06-14 07:34:07 51°11.291 2°41.922 327.9 5 320 12.9
2004-06-14 07:34:12 51°11.296 2°41.913 321.6 5.6 313 12.7
2004-06-14 07:34:16 51°11.3 2°41.903 314 6.3 303 12.7
2004-06-14 07:34:22 51°11.304 2°41.887 306.1 6.5 299 12.6
2004-06-14 07:34:26 51°11.306 2°41.875 297.8 7.1 285 12.7
2004-06-14 07:34:32 51°11.308 2°41.855 289.5 7.4 279 12.6
2004-06-14 07:34:35 51°11.307 2°41.845 281.4 7.7 268 12.5
2004-06-14 07:34:42 51°11.305 2°41.821 272.8 7.8 265 12.6
2004-06-14 07:34:46 51°11.302 2°41.807 264.2 8.2 251 12.6
2004-06-14 07:34:51 51°11.296 2°41.79 255.6 8.5 245 12.7
2004-06-14 07:34:57 51°11.288 2°41.769 248.2 8.9 240 12.7
2004-06-14 07:35:02 51°11.28 2°41.751 243.3 9.4 238 12.6
2004-06-14 07:35:07 51°11.272 2°41.731 241.1 10.7 238 12.7
2004-06-14 07:35:10 51°11.267 2°41.719 241.4 11.1 237 12.8
2004-06-14 07:35:16 51°11.257 2°41.693 241.7 11.8 238 12.8
2004-06-14 07:35:22 51°11.246 2°41.666 242.1 11.9 238 12.8
2004-06-14 07:35:26 51°11.239 2°41.647 242.3 12.5 238 12.9
2004-06-14 07:35:31 51°11.229 2°41.623 242.6 12.6 239 12.9
2004-06-14 07:35:36 51°11.22 2°41.599 243.3 12.9 238 12.8
2004-06-14 07:35:42 51°11.21 2°41.569 243.1 12.9 241 12.9
2004-06-14 07:35:47 51°11.2 2°41.545 243.8 13 238 12.9
2004-06-14 07:35:52 51°11.191 2°41.519 243.4 13.1 240 12.9
2004-06-14 07:35:56 51°11.183 2°41.5 244 13.1 238 13
2004-06-14 07:36:02 51°11.172 2°41.469 243.1 13.3 240 13
2004-06-14 07:36:07 51°11.163 2°41.444 243.3 13.3 239 13
2004-06-14 07:36:12 51°11.154 2°41.419 243.8 13.2 240 13.1
2004-06-14 07:36:16 51°11.146 2°41.399 243.4 13.3 239 13.1
2004-06-14 07:36:22 51°11.135 2°41.368 243.7 13.4 240 13.2
2004-06-14 07:36:27 51°11.125 2°41.343 243.8 13.4 239 13.2
2004-06-14 07:36:32 51°11.116 2°41.318 243.1 13.4 239 13.3
2004-06-14 07:36:36 51°11.108 2°41.298 243.8 13.3 238 13.3
2004-06-14 07:36:42 51°11.097 2°41.267 243.4 13.4 238 13.3
2004-06-14 07:36:47 51°11.087 2°41.242 243.8 13.4 239 13.4
2004-06-14 07:36:52 51°11.078 2°41.216 243.3 13.5 239 13.4
2004-06-14 07:36:56 51°11.07 2°41.196 243.8 13.4 239 13.5
2004-06-14 07:37:02 51°11.059 2°41.165 244.2 13.3 240 13.5
2004-06-14 07:37:05 51°11.054 2°41.15 244.4 13.4 240 13.5
2004-06-14 07:37:11 51°11.043 2°41.119 244.7 13.4 240 13.4
2004-06-14 07:37:16 51°11.033 2°41.093 244.2 13.4 241 13.5
2004-06-14 07:37:22 51°11.022 2°41.062 244.2 13.4 241 13.6
2004-06-14 07:37:27 51°11.013 2°41.036 244.5 13.3 242 13.6
2004-06-14 07:37:32 51°11.004 2°41.011 244.8 13.4 241 13.6
2004-06-14 07:37:37 51°10.995 2°40.985 244.2 13.5 241 13.6
2004-06-14 07:37:42 51°10.986 2°40.959 244.2 13.4 240 13.6
2004-06-14 07:37:45 51°10.98 2°40.944 243.5 13.4 241 13.7
2004-06-14 07:37:52 51°10.967 2°40.908 243.8 13.3 240 13.7
2004-06-14 07:37:57 51°10.959 2°40.882 243.5 13.5 241 13.7
2004-06-14 07:38:02 51°10.949 2°40.857 244.3 13.4 239 13.7
2004-06-14 07:38:07 51°10.939 2°40.831 243.4 13.5 239 13.7
2004-06-14 07:38:12 51°10.93 2°40.805 243.1 13.5 241 13.8
2004-06-14 07:38:17 51°10.921 2°40.78 243.8 13.2 239 13.8
2004-06-14 07:38:22 51°10.912 2°40.754 243.2 13.4 239 13.8
2004-06-14 07:38:25 51°10.907 2°40.738 243.7 13.5 241 13.8
2004-06-14 07:38:32 51°10.893 2°40.702 243.8 13.6 239 13.8
2004-06-14 07:38:36 51°10.887 2°40.681 244.5 13.4 244 14
2004-06-14 07:38:42 51°10.877 2°40.649 246.3 13.3 243 14
2004-06-14 07:38:47 51°10.87 2°40.622 247.9 13.5 247 14.1
2004-06-14 07:38:52 51°10.862 2°40.594 249.9 13.5 247 14.1
2004-06-14 07:38:57 51°10.856 2°40.567 250.6 13.5 248 14.1
2004-06-14 07:39:02 51°10.849 2°40.539 251.6 13.4 249 14.2
2004-06-14 07:39:05 51°10.845 2°40.523 251.8 13.4 249 14.2
2004-06-14 07:39:12 51°10.836 2°40.484 251.9 13.4 249 14.3
2004-06-14 07:39:16 51°10.83 2°40.462 252.6 13.5 248 14.4
2004-06-14 07:39:22 51°10.822 2°40.428 252 13.5 247 14.3
2004-06-14 07:39:27 51°10.815 2°40.401 251.8 13.5 247 14.4
2004-06-14 07:39:32 51°10.808 2°40.374 251.6 13.4 248 14.5
2004-06-14 07:39:37 51°10.801 2°40.346 251.5 13.4 247 14.5
2004-06-14 07:39:42 51°10.794 2°40.319 251.4 13.5 248 14.5
2004-06-14 07:39:45 51°10.79 2°40.302 251.6 13.5 248 14.5
2004-06-14 07:39:51 51°10.782 2°40.269 251.5 13.5 249 14.6
2004-06-14 07:39:56 51°10.775 2°40.241 251.5 13.4 248 14.6
2004-06-14 07:40:02 51°10.766 2°40.208 251.2 13.4 248 14.6
2004-06-14 07:40:07 51°10.759 2°40.181 251.4 13.4 247 14.8
2004-06-14 07:40:12 51°10.752 2°40.153 251.1 13.5 247 14.8
2004-06-14 07:40:17 51°10.745 2°40.126 250.8 13.4 247 14.8
2004-06-14 07:40:22 51°10.737 2°40.099 250.4 13.5 246 14.9
2004-06-14 07:40:25 51°10.733 2°40.082 250.4 13.4 248 15
2004-06-14 07:40:32 51°10.723 2°40.044 251.1 13.4 248 15
2004-06-14 07:40:36 51°10.718 2°40.022 251.5 13.5 248 15
2004-06-14 07:40:42 51°10.71 2°39.988 252.5 13.5 249 15
2004-06-14 07:40:47 51°10.703 2°39.961 251.8 13.5 247 15.1
2004-06-14 07:40:52 51°10.697 2°39.933 251.8 13.5 250 15.2
2004-06-14 07:40:56 51°10.691 2°39.911 252 13.3 248 15.3
2004-06-14 07:41:02 51°10.683 2°39.878 251.5 13.4 248 15.3
2004-06-14 07:41:07 51°10.676 2°39.85 251.7 13.5 248 15.4
2004-06-14 07:41:12 51°10.669 2°39.823 251.8 13.5 249 15.6
2004-06-14 07:41:16 51°10.664 2°39.801 251.8 13.4 249 15.5
2004-06-14 07:41:22 51°10.656 2°39.768 251.4 13.4 248 15.5
2004-06-14 07:41:27 51°10.649 2°39.74 251.2 13.4 248 15.6
2004-06-14 07:41:32 51°10.642 2°39.713 251.7 13.4 248 15.6
2004-06-14 07:41:36 51°10.636 2°39.69 251.1 13.5 247 15.6
2004-06-14 07:41:42 51°10.628 2°39.657 251.4 13.4 249 15.7
2004-06-14 07:41:47 51°10.621 2°39.63 251.5 13.4 248 15.8
2004-06-14 07:41:52 51°10.615 2°39.602 251.4 13.5 250 15.8
2004-06-14 07:41:57 51°10.608 2°39.574 252.6 13.5 251 15.8
2004-06-14 07:42:02 51°10.603 2°39.546 252.8 13.5 250 15.9
2004-06-14 07:42:07 51°10.596 2°39.518 253.8 13.4 250 15.9
2004-06-14 07:42:12 51°10.591 2°39.49 253.9 13.4 252 16
2004-06-14 07:42:16 51°10.586 2°39.468 254.7 13.4 252 16
2004-06-14 07:42:22 51°10.579 2°39.434 254.7 13.5 252 16
2004-06-14 07:42:27 51°10.573 2°39.405 254.3 13.5 252 16.2
2004-06-14 07:42:32 51°10.567 2°39.378 254.8 13.3 252 16.2
2004-06-14 07:42:37 51°10.561 2°39.35 254.7 13.3 251 16.3
2004-06-14 07:42:42 51°10.556 2°39.321 254.3 13.5 252 16.4
2004-06-14 07:42:47 51°10.549 2°39.293 254.7 13.4 250 16.4
2004-06-14 07:42:52 51°10.544 2°39.265 254.6 13.4 253 16.4
2004-06-14 07:42:56 51°10.539 2°39.243 254.4 13.4 251 16.5
2004-06-14 07:43:02 51°10.532 2°39.209 254.4 13.4 252 16.3
2004-06-14 07:43:07 51°10.526 2°39.181 254.7 13.3 252 16.4
2004-06-14 07:43:12 51°10.52 2°39.153 254.7 13.4 252 16.5
2004-06-14 07:43:16 51°10.515 2°39.131 254.1 13.5 250 16.3
2004-06-14 07:43:22 51°10.509 2°39.097 254.9 13.5 253 16.5
2004-06-14 07:43:27 51°10.502 2°39.069 254.3 13.4 251 16.8
2004-06-14 07:43:32 51°10.497 2°39.041 253.7 13.5 252 16.6
2004-06-14 07:43:37 51°10.491 2°39.013 254.9 13.3 252 16.9
2004-06-14 07:43:39 51°10.488 2°39.002 253.6 13.3 249 17
2004-06-14 07:43:46 51°10.48 2°38.963 253.9 13.4 252 17.2
2004-06-14 07:43:52 51°10.473 2°38.929 254.7 13.3 252 17.2
2004-06-14 07:43:57 51°10.467 2°38.901 253.8 13.5 251 17.2
2004-06-14 07:44:02 51°10.461 2°38.873 254.2 13.5 252 17.1
2004-06-14 07:44:07 51°10.455 2°38.845 254.4 13.4 250 17.1
2004-06-14 07:44:12 51°10.449 2°38.817 254.1 13.4 252 17
2004-06-14 07:44:16 51°10.444 2°38.795 254.2 13.4 251 17.1
2004-06-14 07:44:22 51°10.437 2°38.76 254.2 13.5 251 17
2004-06-14 07:44:27 51°10.431 2°38.732 254.3 13.5 251 17.3
2004-06-14 07:44:32 51°10.425 2°38.704 254.6 13.4 252 17.3
2004-06-14 07:44:37 51°10.419 2°38.676 254 13.7 250 17.5
2004-06-14 07:44:42 51°10.413 2°38.647 254.2 13.6 252 17.6
2004-06-14 07:44:45 51°10.409 2°38.63 254.7 13.5 251 17.7
2004-06-14 07:44:52 51°10.401 2°38.591 254.1 13.5 251 17.7
2004-06-14 07:44:56 51°10.395 2°38.568 254 13.6 250 17.3
2004-06-14 07:45:02 51°10.389 2°38.534 254.4 13.4 252 17.4
2004-06-14 07:45:07 51°10.382 2°38.507 254.4 13.5 249 17.3
2004-06-14 07:45:12 51°10.377 2°38.478 253.3 13.7 252 17.4
2004-06-14 07:45:17 51°10.37 2°38.45 255.1 13.4 251 17.3
2004-06-14 07:45:22 51°10.364 2°38.422 254.2 13.4 251 17.7
2004-06-14 07:45:25 51°10.361 2°38.405 253.8 13.6 252 17.4
2004-06-14 07:45:32 51°10.352 2°38.365 254.5 13.7 251 17.4
2004-06-14 07:45:36 51°10.348 2°38.342 254.9 13.4 254 17.5
2004-06-14 07:45:42 51°10.34 2°38.309 254.7 13.4 252 17.4
2004-06-14 07:45:47 51°10.335 2°38.28 254.8 13.6 254 17.4
2004-06-14 07:45:52 51°10.328 2°38.252 255.2 13.4 250 17.6
2004-06-14 07:45:56 51°10.324 2°38.229 254.5 13.4 253 17.6
2004-06-14 07:46:02 51°10.317 2°38.195 253.8 13.6 252 17.7
2004-06-14 07:46:07 51°10.311 2°38.167 254.6 13.5 252 17.8
2004-06-14 07:46:12 51°10.305 2°38.139 254.2 13.4 249 17.9
2004-06-14 07:46:16 51°10.3 2°38.117 254.3 13.5 254 17.8
2004-06-14 07:46:22 51°10.293 2°38.082 254.6 13.5 250 18
2004-06-14 07:46:27 51°10.287 2°38.054 254.8 13.4 253 18.2
2004-06-14 07:46:32 51°10.281 2°38.027 254.9 13.3 251 18.1
2004-06-14 07:46:37 51°10.275 2°37.998 254 13.5 252 18.2
2004-06-14 07:46:42 51°10.269 2°37.97 254.3 13.5 251 18.2
2004-06-14 07:46:45 51°10.266 2°37.953 254.8 13.4 252 18.3
2004-06-14 07:46:52 51°10.257 2°37.914 254.4 13.4 250 18.3
2004-06-14 07:46:56 51°10.253 2°37.891 254 13.6 252 18.3
2004-06-14 07:47:02 51°10.245 2°37.857 254.2 13.5 251 18.4
2004-06-14 07:47:07 51°10.239 2°37.83 254.5 13.4 251 18.5
2004-06-14 07:47:12 51°10.233 2°37.801 254.2 13.4 251 18.7
2004-06-14 07:47:16 51°10.229 2°37.779 254 13.5 251 18.5
2004-06-14 07:47:22 51°10.222 2°37.745 254.8 13.5 253 18.7
2004-06-14 07:47:27 51°10.216 2°37.717 254.6 13.4 252 18.8
2004-06-14 07:47:32 51°10.21 2°37.689 254.6 13.4 252 18.8
2004-06-14 07:47:36 51°10.205 2°37.666 254.6 13.5 251 19
2004-06-14 07:47:42 51°10.199 2°37.632 254.6 13.4 252 19
2004-06-14 07:47:47 51°10.192 2°37.605 254.7 13.4 251 19
2004-06-14 07:47:52 51°10.187 2°37.576 254.4 13.5 252 18.9
2004-06-14 07:47:57 51°10.181 2°37.548 254.2 13.4 251 19
2004-06-14 07:48:02 51°10.174 2°37.521 254.7 13.3 252 19
2004-06-14 07:48:05 51°10.17 2°37.504 253.5 13.5 251 18.9
2004-06-14 07:48:11 51°10.164 2°37.47 254.3 13.4 252 19.1
2004-06-14 07:48:16 51°10.157 2°37.442 253.9 13.4 250 19
2004-06-14 07:48:22 51°10.15 2°37.408 253.9 13.4 252 19.1
2004-06-14 07:48:27 51°10.145 2°37.381 254.4 13.3 251 19.1
2004-06-14 07:48:32 51°10.138 2°37.353 254.5 13.4 252 18.8
2004-06-14 07:48:37 51°10.133 2°37.324 254.3 13.4 252 19.1
2004-06-14 07:48:42 51°10.127 2°37.296 254.7 13.3 252 19.1
2004-06-14 07:48:45 51°10.123 2°37.28 254.4 13.4 251 18.8
2004-06-14 07:48:52 51°10.115 2°37.241 254 13.5 252 19
2004-06-14 07:48:57 51°10.109 2°37.212 254.5 13.3 252 18.8
2004-06-14 07:49:02 51°10.103 2°37.185 254.5 13.4 250 19.2
2004-06-14 07:49:07 51°10.098 2°37.156 254.2 13.4 253 19.1
2004-06-14 07:49:12 51°10.091 2°37.129 254.4 13.3 249 19.3
2004-06-14 07:49:16 51°10.087 2°37.106 253.7 13.5 252 19.2
2004-06-14 07:49:22 51°10.079 2°37.073 254.7 13.4 253 18.9
2004-06-14 07:49:27 51°10.074 2°37.045 254.1 13.4 252 19
2004-06-14 07:49:32 51°10.067 2°37.017 254 13.5 251 19
2004-06-14 07:49:37 51°10.062 2°36.989 254.3 13.3 252 18.9
2004-06-14 07:49:42 51°10.055 2°36.961 254.5 13.3 252 19
2004-06-14 07:49:47 51°10.05 2°36.933 254.5 13.3 253 19.2
2004-06-14 07:49:52 51°10.043 2°36.905 254.7 13.3 251 19.1
2004-06-14 07:49:56 51°10.039 2°36.883 253.5 13.5 252 19.2
2004-06-14 07:50:02 51°10.032 2°36.85 254.7 13.2 250 19.1
2004-06-14 07:50:07 51°10.026 2°36.822 253.8 13.4 250 19.1
2004-06-14 07:50:12 51°10.02 2°36.794 253.8 13.4 252 18.8
2004-06-14 07:50:16 51°10.015 2°36.771 254 13.4 250 19.2
2004-06-14 07:50:22 51°10.008 2°36.738 254.5 13.3 253 18.9
2004-06-14 07:50:27 51°10.002 2°36.71 254.4 13.4 251 18.9
2004-06-14 07:50:32 51°9.996 2°36.682 254.1 13.4 252 18.7
2004-06-14 07:50:37 51°9.99 2°36.654 254.5 13.3 251 18.9
2004-06-14 07:50:42 51°9.984 2°36.626 254 13.4 251 18.8
2004-06-14 07:50:46 51°9.979 2°36.604 254.2 13.3 251 19.1
2004-06-14 07:50:51 51°9.973 2°36.576 254.7 13.3 252 19.1
2004-06-14 07:50:56 51°9.967 2°36.548 254 13.4 250 19.1
2004-06-14 07:51:02 51°9.96 2°36.515 254.4 13.4 250 18.7
2004-06-14 07:51:07 51°9.954 2°36.487 254.6 13.3 252 18.9
2004-06-14 07:51:12 51°9.948 2°36.459 254.5 13.3 250 19
2004-06-14 07:51:16 51°9.943 2°36.437 254.1 13.3 252 19.1
2004-06-14 07:51:22 51°9.936 2°36.403 254.1 13.4 252 18.9
2004-06-14 07:51:27 51°9.931 2°36.375 254.6 13.3 252 18.9
2004-06-14 07:51:32 51°9.925 2°36.347 254.7 13.3 253 18.9
2004-06-14 07:51:36 51°9.922 2°36.324 256.2 13.3 256 18.8
2004-06-14 07:51:42 51°9.918 2°36.29 259.3 13.3 259 18.9
2004-06-14 07:51:47 51°9.917 2°36.26 263.1 13.3 265 19.2
2004-06-14 07:51:52 51°9.917 2°36.231 267.7 13.3 268 18.9
2004-06-14 07:51:57 51°9.919 2°36.202 272.3 13.2 275 18.9
2004-06-14 07:52:02 51°9.922 2°36.173 277.2 13.2 278 19.1